createdAt,value
2022-11-14T00:03:23.847Z,23.33
2022-11-14T00:10:30.343Z,22.58
2022-11-14T00:17:34.484Z,22.45
2022-11-14T00:24:38.653Z,21.05
2022-11-14T00:31:45.896Z,19.70
2022-11-14T00:38:49.870Z,20.17
2022-11-14T00:45:53.941Z,21.05
2022-11-14T00:53:00.779Z,17.67
2022-11-14T01:00:05.330Z,19.55
2022-11-14T01:07:09.339Z,17.63
2022-11-14T01:14:16.051Z,18.40
2022-11-14T01:21:20.280Z,18.73
2022-11-14T01:28:24.798Z,18.60
2022-11-14T01:35:31.458Z,18.60
2022-11-14T01:49:43.933Z,17.25
2022-11-14T01:56:56.021Z,17.70
2022-11-14T02:04:00.887Z,18.05
2022-11-14T02:11:04.984Z,16.92
2022-11-14T02:18:12.430Z,17.38
2022-11-14T02:25:21.836Z,16.42
2022-11-14T02:32:25.621Z,16.45
2022-11-14T02:39:30.194Z,16.88
2022-11-14T02:46:37.202Z,16.83
2022-11-14T02:53:41.307Z,16.85
2022-11-14T03:01:13.688Z,17.60
2022-11-14T03:08:12.191Z,17.45
2022-11-14T03:15:16.184Z,16.13
2022-11-14T03:22:20.038Z,17.38
2022-11-14T03:29:26.630Z,17.42
2022-11-14T03:36:30.634Z,16.80
2022-11-14T03:43:36.278Z,19.10
2022-11-14T04:04:31.446Z,18.95
2022-11-14T04:11:35.522Z,19.13
2022-11-14T04:18:39.480Z,18.48
2022-11-14T04:25:47.456Z,16.40
2022-11-14T04:32:51.292Z,16.58
2022-11-14T04:39:58.607Z,15.73
2022-11-14T04:47:05.069Z,16.75
2022-11-14T04:54:09.622Z,17.30
2022-11-14T05:01:15.304Z,16.98
2022-11-14T05:08:21.973Z,17.55
2022-11-14T05:15:25.817Z,16.87
2022-11-14T05:22:30.232Z,16.63
2022-11-14T05:29:36.940Z,16.55
2022-11-14T05:36:40.721Z,16.93
2022-11-14T05:43:45.448Z,17.40
2022-11-14T05:50:51.843Z,17.98
2022-11-14T05:57:55.974Z,18.25
2022-11-14T06:04:59.839Z,18.83
2022-11-14T06:12:07.917Z,18.00
2022-11-14T06:19:11.862Z,19.40
2022-11-14T06:26:24.408Z,18.70
2022-11-14T06:33:33.356Z,18.50
2022-11-14T06:40:37.145Z,19.15
2022-11-14T06:47:41.189Z,18.95
2022-11-14T06:54:47.769Z,18.95
2022-11-14T07:01:51.803Z,18.88
2022-11-14T07:08:57.176Z,19.02
2022-11-14T07:16:04.824Z,17.83
2022-11-14T07:23:08.978Z,19.05
2022-11-14T07:30:14.588Z,18.42
2022-11-14T07:37:20.993Z,19.27
2022-11-14T07:44:24.714Z,18.93
2022-11-14T07:51:29.045Z,19.20
2022-11-14T07:58:37.561Z,18.55
2022-11-14T08:05:41.725Z,18.27
2022-11-14T08:12:45.774Z,19.73
2022-11-14T08:19:52.340Z,17.23
2022-11-14T08:26:56.193Z,18.40
2022-11-14T08:34:00.467Z,18.40
2022-11-14T08:41:08.411Z,19.50
2022-11-14T08:48:13.633Z,18.48
2022-11-14T08:55:18.253Z,19.05
2022-11-14T09:02:24.896Z,18.17
2022-11-14T09:09:28.799Z,17.83
2022-11-14T09:16:33.687Z,17.73
2022-11-14T09:23:40.468Z,19.13
2022-11-14T09:30:44.686Z,18.90
2022-11-14T09:37:48.915Z,18.48
2022-11-14T09:45:03.419Z,18.40
2022-11-14T09:52:20.456Z,18.88
2022-11-14T09:59:24.786Z,17.67
2022-11-14T10:06:38.077Z,18.10
2022-11-14T10:14:08.932Z,17.00
2022-11-14T10:21:37.379Z,17.95
2022-11-14T10:29:05.168Z,18.38
2022-11-14T10:36:17.589Z,17.65
2022-11-14T10:43:30.178Z,18.08
2022-11-14T10:50:45.656Z,18.25
2022-11-14T10:57:50.228Z,17.85
2022-11-14T11:04:56.820Z,17.92
2022-11-14T11:12:05.493Z,17.75
2022-11-14T11:19:26.688Z,17.13
2022-11-14T11:26:35.214Z,16.08
2022-11-14T11:33:42.991Z,15.45
2022-11-14T11:40:49.740Z,15.20
2022-11-14T11:48:01.736Z,14.80
2022-11-14T11:55:19.071Z,13.63
2022-11-14T12:10:08.720Z,13.87
2022-11-14T12:17:45.947Z,14.10
2022-11-14T12:25:41.191Z,13.57
2022-11-14T12:32:49.409Z,12.85
2022-11-14T12:40:00.922Z,13.27
2022-11-14T12:47:23.745Z,12.35
2022-11-14T12:54:47.007Z,11.88
2022-11-14T13:02:09.105Z,12.05
2022-11-14T13:09:40.096Z,11.30
2022-11-14T13:16:56.544Z,10.57
2022-11-14T13:24:01.143Z,10.77
2022-11-14T13:31:23.132Z,10.38
2022-11-14T13:39:07.976Z,10.13
2022-11-14T13:46:33.492Z,10.15
2022-11-14T13:53:37.626Z,10.98
2022-11-14T14:01:07.872Z,10.88
2022-11-14T14:08:36.405Z,10.60
2022-11-14T14:15:49.652Z,10.45
2022-11-14T14:23:09.749Z,10.45
2022-11-14T14:30:19.005Z,10.55
2022-11-14T14:37:26.161Z,9.52
2022-11-14T14:44:34.744Z,9.00
2022-11-14T14:51:42.869Z,10.15
2022-11-14T14:58:47.255Z,12.02
2022-11-14T15:05:51.596Z,11.57
2022-11-14T15:12:59.819Z,12.27
2022-11-14T15:20:04.114Z,12.65
2022-11-14T15:27:14.366Z,12.02
2022-11-14T15:34:34.084Z,9.80
2022-11-14T15:41:38.392Z,8.68
2022-11-14T15:48:44.908Z,10.23
2022-11-14T15:55:51.788Z,9.63
2022-11-14T16:02:59.878Z,9.38
2022-11-14T16:10:06.022Z,9.27
2022-11-14T16:17:16.910Z,8.98
2022-11-14T16:24:23.282Z,9.13
2022-11-14T16:31:27.802Z,9.32
2022-11-14T16:38:34.497Z,9.80
2022-11-14T16:45:43.816Z,9.30
2022-11-14T16:52:47.599Z,9.80
2022-11-14T16:59:54.571Z,9.75
2022-11-14T17:06:58.629Z,10.25
2022-11-14T17:14:02.720Z,9.50
2022-11-14T17:21:15.115Z,10.00
2022-11-14T17:28:19.071Z,9.68
2022-11-14T17:35:23.520Z,9.32
2022-11-14T17:42:30.604Z,8.75
2022-11-14T17:49:35.345Z,9.07
2022-11-14T17:56:44.871Z,9.43
2022-11-14T18:03:54.122Z,8.80
2022-11-14T18:11:03.606Z,9.40
2022-11-14T18:18:07.894Z,9.40
2022-11-14T18:25:14.750Z,9.38
2022-11-14T18:32:18.625Z,8.85
2022-11-14T18:39:22.836Z,9.10
2022-11-14T18:46:36.954Z,9.18
2022-11-14T18:53:41.853Z,8.90
2022-11-14T19:00:46.059Z,8.75
2022-11-14T19:07:55.242Z,8.50
2022-11-14T19:14:59.181Z,8.30
2022-11-14T19:22:04.093Z,8.75
2022-11-14T19:29:13.444Z,8.30
2022-11-14T19:36:44.976Z,8.68
2022-11-14T19:43:45.213Z,9.07
2022-11-14T19:50:52.381Z,8.40
2022-11-14T19:57:56.366Z,7.93
2022-11-14T20:05:00.120Z,8.50
2022-11-14T20:12:08.644Z,8.00
2022-11-14T20:19:13.683Z,8.40
2022-11-14T20:26:19.596Z,8.35
2022-11-14T20:33:26.648Z,8.17
2022-11-14T20:47:35.047Z,8.20
2022-11-14T20:54:41.699Z,8.38
2022-11-14T21:01:46.031Z,7.90
2022-11-14T21:08:50.013Z,8.43
2022-11-14T21:15:59.812Z,8.25
2022-11-14T21:23:03.576Z,7.63
2022-11-14T21:30:09.053Z,8.02
2022-11-14T21:37:15.580Z,8.18
2022-11-14T21:44:21.510Z,8.30
2022-11-14T21:51:28.020Z,7.85
2022-11-14T21:58:36.788Z,8.00
2022-11-14T22:05:41.121Z,8.30
2022-11-14T22:12:45.449Z,7.88
2022-11-14T22:19:52.241Z,7.53
2022-11-14T22:26:56.856Z,8.23
2022-11-14T22:34:01.975Z,8.27
2022-11-14T22:41:17.445Z,7.90
2022-11-14T22:48:21.632Z,7.70
2022-11-14T22:55:25.599Z,7.57
2022-11-14T23:02:32.309Z,7.93
2022-11-14T23:09:36.504Z,7.47
2022-11-14T23:16:40.342Z,7.57
2022-11-14T23:23:47.136Z,7.47
2022-11-14T23:30:51.372Z,7.80
2022-11-14T23:37:55.529Z,7.70
2022-11-14T23:45:02.149Z,7.03
2022-11-14T23:52:07.044Z,7.00
2022-11-14T23:59:11.148Z,6.85
